Time;durP1;ratioP1;P1;durP2;ratioP2;P2;SDS_P1;SDS_P2;PMS_P1;PMS_P2;Temp;Humidity;BMP_temperature;BMP_pressure;BME280_temperature;BME280_humidity;BME280_pressure;Samples;Min_cycle;Max_cycle;Signal;HPM_P1;HPM_P2
2023/01/27 00:01:37;;;;;;;;;;;;;;;0.04;100.00;100527.72;4999257;28;20407;-60
2023/01/27 00:04:03;;;;;;;;;;;;;;;-0.02;100.00;100533.66;5047171;28;20011;-60
2023/01/27 00:06:28;;;;;;;;;;;;;;;-0.12;100.00;100534.53;5055087;28;20509;-60
2023/01/27 00:08:54;;;;;;;;;;;;;;;-0.07;100.00;100539.59;5054967;28;19921;-63
2023/01/27 00:14:02;;;;;;;;;;;;;;;0.24;100.00;100536.94;5054941;28;19923;-60
2023/01/27 00:16:27;;;;;;;;;;;;;;;0.23;100.00;100537.75;5042266;28;19921;-60
2023/01/27 00:18:53;;;;;;;;;;;;;;;0.08;100.00;100531.09;5052335;28;19917;-63
2023/01/27 00:26:45;;;;;;;;;;;;;;;-0.09;100.00;100536.22;5054438;28;19963;-60
2023/01/27 00:29:10;;;;;;;;;;;;;;;0.05;100.00;100531.09;5054504;28;20367;-59
2023/01/27 00:34:20;;;;;;;;;;;;;;;0.08;100.00;100523.50;5053544;28;20016;-60
2023/01/27 00:36:45;;;;;;;;;;;;;;;0.13;100.00;100529.38;5054001;28;20019;-61
2023/01/27 00:39:11;;;;;;;;;;;;;;;0.05;100.00;100531.09;5054751;28;19921;-60
2023/01/27 00:41:36;;;;;;;;;;;;;;;0.05;100.00;100526.88;5041168;28;19924;-60
2023/01/27 00:44:01;;;;;;;;;;;;;;;0.07;100.00;100529.41;5054042;28;20011;-60
2023/01/27 00:46:27;;;;;;;;;;;;;;;0.18;100.00;100524.31;5054226;28;19923;-60
2023/01/27 00:48:52;;;;;;;;;;;;;;;0.17;100.00;100527.69;5054456;28;19923;-60
2023/01/27 00:51:18;;;;;;;;;;;;;;;0.22;100.00;100524.25;5041805;28;19921;-60
2023/01/27 00:53:43;;;;;;;;;;;;;;;0.31;100.00;100526.75;5044910;28;19970;-60
2023/01/27 00:56:09;;;;;;;;;;;;;;;0.22;100.00;100524.25;5048708;28;19920;-59
2023/01/27 00:58:34;;;;;;;;;;;;;;;0.29;100.00;100522.56;5043980;28;20371;-59
2023/01/27 01:01:01;;;;;;;;;;;;;;;0.31;100.00;100526.75;5034975;28;19932;-61
2023/01/27 01:03:30;;;;;;;;;;;;;;;0.36;100.00;100529.28;5027967;28;19920;-60
2023/01/27 01:05:58;;;;;;;;;;;;;;;0.41;100.00;100529.22;5051971;28;19921;-60
2023/01/27 01:08:23;;;;;;;;;;;;;;;0.35;100.00;100520.00;5036083;28;20390;-59
2023/01/27 01:10:48;;;;;;;;;;;;;;;0.42;100.00;100521.63;5042857;28;20031;-59
2023/01/27 01:13:14;;;;;;;;;;;;;;;0.47;100.00;100531.72;5052521;28;19920;-60
2023/01/27 01:15:39;;;;;;;;;;;;;;;0.48;100.00;100526.66;5053754;28;19927;-60
2023/01/27 01:18:05;;;;;;;;;;;;;;;0.48;100.00;100533.41;5032339;28;19921;-60
2023/01/27 01:20:34;;;;;;;;;;;;;;;0.45;100.00;100530.91;5041708;28;19927;-60
2023/01/27 01:22:59;;;;;;;;;;;;;;;0.36;100.00;100538.53;5052285;28;19967;-61
2023/01/27 01:25:24;;;;;;;;;;;;;;;0.46;100.00;100537.66;5053892;28;19948;-61
2023/01/27 01:27:50;;;;;;;;;;;;;;;0.41;100.00;100536.81;5053564;28;20311;-61
2023/01/27 01:30:15;;;;;;;;;;;;;;;0.55;100.00;100536.75;5024954;28;19925;-60
2023/01/27 01:32:40;;;;;;;;;;;;;;;0.63;100.00;100542.59;5034431;28;19917;-60
2023/01/27 01:35:06;;;;;;;;;;;;;;;0.63;100.00;100545.97;5053177;28;19917;-59
2023/01/27 01:37:31;;;;;;;;;;;;;;;0.63;100.00;100540.06;5053174;28;19917;-60
2023/01/27 01:39:56;;;;;;;;;;;;;;;0.61;100.00;100537.53;5053661;28;19924;-61
2023/01/27 01:42:21;;;;;;;;;;;;;;;0.48;100.00;100535.94;5041104;28;20229;-59
2023/01/27 01:44:46;;;;;;;;;;;;;;;0.52;100.00;100534.22;5053319;28;19917;-60
2023/01/27 01:47:15;;;;;;;;;;;;;;;0.57;100.00;100535.03;5053044;28;20002;-60
2023/01/27 01:49:41;;;;;;;;;;;;;;;0.52;100.00;100534.22;5035393;28;20277;-60
2023/01/27 01:52:09;;;;;;;;;;;;;;;0.50;100.00;100534.25;5039906;28;19928;-59
2023/01/27 01:54:37;;;;;;;;;;;;;;;0.51;100.00;100527.47;5052997;28;20027;-60
2023/01/27 01:57:10;;;;;;;;;;;;;;;0.43;100.00;100538.47;5053187;28;20429;-59
2023/01/27 01:59:39;;;;;;;;;;;;;;;0.53;100.00;100530.84;5037693;28;19922;-60
2023/01/27 02:02:08;;;;;;;;;;;;;;;0.57;100.00;100535.03;5028791;28;19925;-61
2023/01/27 02:04:53;;;;;;;;;;;;;;;0.69;100.00;100534.94;5022497;28;20394;-60
2023/01/27 02:07:21;;;;;;;;;;;;;;;0.68;100.00;100532.44;5010009;28;19925;-59
2023/01/27 02:09:46;;;;;;;;;;;;;;;0.66;100.00;100542.59;5011239;28;19933;-59
2023/01/27 02:12:11;;;;;;;;;;;;;;;0.61;100.00;100529.94;5000174;28;19959;-59
2023/01/27 02:14:38;;;;;;;;;;;;;;;0.66;100.00;100529.94;5001793;28;19918;-60
2023/01/27 02:17:04;;;;;;;;;;;;;;;0.68;100.00;100523.13;5006751;28;19932;-59
2023/01/27 02:19:29;;;;;;;;;;;;;;;0.61;100.00;100529.13;5010763;28;19924;-60
2023/01/27 02:21:55;;;;;;;;;;;;;;;0.56;100.00;100531.69;5000340;28;20012;-60
2023/01/27 02:24:21;;;;;;;;;;;;;;;0.58;100.00;100531.66;5010382;28;19921;-60
2023/01/27 02:26:47;;;;;;;;;;;;;;;0.58;100.00;100529.97;5009887;28;19937;-59
2023/01/27 02:29:14;;;;;;;;;;;;;;;0.68;100.00;100527.38;4991195;28;20305;-59
2023/01/27 02:31:39;;;;;;;;;;;;;;;0.67;100.00;100518.94;4997119;28;20309;-59
2023/01/27 02:34:06;;;;;;;;;;;;;;;0.66;100.00;100527.41;5010493;28;19951;-61
2023/01/27 02:36:33;;;;;;;;;;;;;;;0.71;100.00;100519.75;5009846;28;19956;-59
2023/01/27 02:39:03;;;;;;;;;;;;;;;0.71;100.00;100524.81;5043219;28;19924;-59
2023/01/27 02:44:42;;;;;;;;;;;;;;;0.70;100.00;100539.19;5047704;28;19924;-59
2023/01/27 02:47:07;;;;;;;;;;;;;;;0.56;100.00;100533.34;5050648;28;20380;-59
2023/01/27 02:49:33;;;;;;;;;;;;;;;0.59;100.00;100530.81;5052133;28;19923;-59
2023/01/27 02:51:58;;;;;;;;;;;;;;;0.57;100.00;100524.91;5040486;28;19948;-59
2023/01/27 02:54:24;;;;;;;;;;;;;;;0.51;100.00;100528.34;5051949;28;20275;-59
2023/01/27 02:56:49;;;;;;;;;;;;;;;0.62;100.00;100535.84;5051542;28;19917;-59
2023/01/27 02:59:14;;;;;;;;;;;;;;;0.68;100.00;100540.88;5033541;28;19931;-60
2023/01/27 03:01:39;;;;;;;;;;;;;;;0.71;100.00;100540.00;5041156;28;19921;-60
2023/01/27 03:04:05;;;;;;;;;;;;;;;0.73;100.00;100536.63;5051423;28;20316;-59
2023/01/27 03:06:30;;;;;;;;;;;;;;;0.82;100.00;100538.25;5051556;28;19917;-59
2023/01/27 03:08:55;;;;;;;;;;;;;;;0.80;100.00;100532.34;5051822;28;19921;-59
2023/01/27 03:14:05;;;;;;;;;;;;;;;0.69;100.00;100539.19;5051358;28;19970;-58
2023/01/27 03:19:14;;;;;;;;;;;;;;;0.77;100.00;100539.97;5052150;28;19924;-59
2023/01/27 03:21:40;;;;;;;;;;;;;;;0.75;100.00;100544.22;5039958;28;20339;-59
2023/01/27 03:24:05;;;;;;;;;;;;;;;0.76;100.00;100540.84;5051174;28;20375;-59
2023/01/27 03:26:30;;;;;;;;;;;;;;;0.75;100.00;100542.50;5051417;28;20279;-59
2023/01/27 03:31:39;;;;;;;;;;;;;;;0.79;100.00;100549.25;5040000;28;19927;-59
2023/01/27 03:34:04;;;;;;;;;;;;;;;0.83;100.00;100542.44;5051448;28;20083;-59
2023/01/27 03:47:25;;;;;;;;;;;;;;;0.77;100.00;100547.56;5051038;28;20311;-59
2023/01/27 03:49:50;;;;;;;;;;;;;;;0.73;100.00;100551.81;5051197;28;19960;-59
2023/01/27 03:52:15;;;;;;;;;;;;;;;0.75;100.00;100546.75;5039358;28;19921;-59
2023/01/27 03:54:41;;;;;;;;;;;;;;;0.70;100.00;100545.94;5051405;28;19925;-59
2023/01/27 03:57:06;;;;;;;;;;;;;;;0.78;100.00;100552.63;5051110;28;19917;-59
2023/01/27 03:59:31;;;;;;;;;;;;;;;0.83;100.00;100556.81;5050933;28;20016;-59
2023/01/27 04:07:24;;;;;;;;;;;;;;;0.70;100.00;100549.31;5050805;28;19939;-58
2023/01/27 04:09:50;;;;;;;;;;;;;;;0.64;100.00;100555.25;5051540;28;20390;-59
2023/01/27 04:12:15;;;;;;;;;;;;;;;0.63;100.00;100548.50;5038966;28;19925;-60
2023/01/27 04:14:43;;;;;;;;;;;;;;;0.64;100.00;100552.72;5051421;28;19916;-59
2023/01/27 04:17:13;;;;;;;;;;;;;;;0.67;100.00;100548.47;5035879;28;20016;-58
2023/01/27 04:19:38;;;;;;;;;;;;;;;0.60;100.00;100550.22;5042918;28;19921;-58
2023/01/27 04:22:04;;;;;;;;;;;;;;;0.59;100.00;100544.28;5039523;28;20305;-58
2023/01/27 04:24:29;;;;;;;;;;;;;;;0.68;100.00;100552.69;5051086;28;19960;-59
2023/01/27 04:26:59;;;;;;;;;;;;;;;0.65;100.00;100556.09;5050596;28;20490;-58
2023/01/27 04:29:26;;;;;;;;;;;;;;;0.65;100.00;100558.63;5051397;28;20342;-59
2023/01/27 04:31:51;;;;;;;;;;;;;;;0.70;100.00;100556.91;5039173;28;19921;-60
2023/01/27 04:34:17;;;;;;;;;;;;;;;0.62;100.00;100556.94;5051020;28;20299;-59
2023/01/27 04:36:42;;;;;;;;;;;;;;;0.65;100.00;100561.16;5050493;28;19917;-59
2023/01/27 04:39:08;;;;;;;;;;;;;;;0.60;100.00;100558.66;5051161;28;19924;-59
2023/01/27 04:41:33;;;;;;;;;;;;;;;0.62;100.00;100556.94;5039670;28;19960;-59
2023/01/27 04:43:59;;;;;;;;;;;;;;;0.63;100.00;100556.09;5050443;28;20284;-59
2023/01/27 04:46:24;;;;;;;;;;;;;;;0.69;100.00;100554.38;5050319;28;20056;-59
2023/01/27 04:48:49;;;;;;;;;;;;;;;0.66;100.00;100567.91;5052906;28;19950;-59
2023/01/27 04:51:14;;;;;;;;;;;;;;;0.66;100.00;100567.03;5039107;28;19952;-59
2023/01/27 04:53:40;;;;;;;;;;;;;;;0.73;100.00;100568.69;5045328;28;19920;-61
2023/01/27 04:56:06;;;;;;;;;;;;;;;0.63;100.00;100558.63;5049242;28;19921;-60
2023/01/27 04:58:31;;;;;;;;;;;;;;;0.66;100.00;100564.50;5041743;28;19935;-60
2023/01/27 05:00:56;;;;;;;;;;;;;;;0.67;100.00;100564.53;5039812;28;20003;-59
2023/01/27 05:03:22;;;;;;;;;;;;;;;0.71;100.00;100565.31;5053837;28;19917;-60
2023/01/27 05:05:47;;;;;;;;;;;;;;;0.67;100.00;100567.06;5053877;28;19924;-59
2023/01/27 05:08:12;;;;;;;;;;;;;;;0.67;100.00;100568.72;5053274;28;19916;-59
2023/01/27 05:10:37;;;;;;;;;;;;;;;0.69;100.00;100574.63;5041474;28;20015;-59
2023/01/27 05:13:03;;;;;;;;;;;;;;;0.72;100.00;100572.06;5031096;28;20326;-59
2023/01/27 05:15:29;;;;;;;;;;;;;;;0.70;100.00;100572.09;5050517;28;19916;-59
2023/01/27 05:17:54;;;;;;;;;;;;;;;0.74;100.00;100576.28;5053350;28;19917;-59
2023/01/27 05:20:19;;;;;;;;;;;;;;;0.75;100.00;100575.44;5041726;28;20364;-59
2023/01/27 05:22:45;;;;;;;;;;;;;;;0.72;100.00;100585.59;5034962;28;19921;-59
2023/01/27 05:25:10;;;;;;;;;;;;;;;0.69;100.00;100577.16;5050177;28;19920;-60
2023/01/27 05:27:35;;;;;;;;;;;;;;;0.68;100.00;100580.56;5054047;28;19957;-59
2023/01/27 05:30:00;;;;;;;;;;;;;;;0.71;100.00;100583.91;5035100;28;20017;-60
2023/01/27 05:32:25;;;;;;;;;;;;;;;0.81;100.00;100584.69;5040596;28;19925;-60
2023/01/27 05:34:51;;;;;;;;;;;;;;;0.84;100.00;100584.66;5033596;28;20453;-59
2023/01/27 05:37:16;;;;;;;;;;;;;;;0.90;100.00;100584.63;5051714;28;19924;-59
2023/01/27 05:39:41;;;;;;;;;;;;;;;0.89;100.00;100587.16;5052054;28;20252;-60
2023/01/27 05:42:06;;;;;;;;;;;;;;;0.87;100.00;100592.25;5039721;28;19921;-59
2023/01/27 05:44:31;;;;;;;;;;;;;;;0.88;100.00;100590.53;5035335;28;19970;-59
2023/01/27 05:46:57;;;;;;;;;;;;;;;0.87;100.00;100589.72;5053123;28;19951;-59
2023/01/27 05:49:22;;;;;;;;;;;;;;;0.92;100.00;100592.22;5053276;28;19939;-59
2023/01/27 05:51:47;;;;;;;;;;;;;;;0.99;100.00;100590.47;5040356;28;19921;-59
2023/01/27 05:54:12;;;;;;;;;;;;;;;0.95;100.00;100587.97;5052780;28;19928;-59
2023/01/27 05:56:38;;;;;;;;;;;;;;;0.88;100.00;100591.41;5052766;28;20336;-59
2023/01/27 05:59:03;;;;;;;;;;;;;;;0.95;100.00;100594.72;5053090;28;20382;-59
2023/01/27 06:01:30;;;;;;;;;;;;;;;0.96;100.00;100593.88;5041889;28;20273;-59
2023/01/27 06:03:55;;;;;;;;;;;;;;;0.97;100.00;100595.56;5052678;28;19921;-61
2023/01/27 06:06:22;;;;;;;;;;;;;;;0.93;100.00;100594.75;5052787;28;19924;-59
2023/01/27 06:08:47;;;;;;;;;;;;;;;1.02;100.00;100595.50;5052600;28;19923;-60
2023/01/27 06:11:12;;;;;;;;;;;;;;;1.06;100.00;100592.94;5033976;28;20375;-59
2023/01/27 06:13:38;;;;;;;;;;;;;;;1.07;100.00;100602.25;5034349;28;20387;-59
2023/01/27 06:16:05;;;;;;;;;;;;;;;1.06;100.00;100604.78;5052396;28;20372;-59
2023/01/27 06:18:30;;;;;;;;;;;;;;;1.07;100.00;100604.78;5051456;28;19994;-61
2023/01/27 06:20:58;;;;;;;;;;;;;;;1.14;100.00;100597.97;5042389;28;19955;-60
2023/01/27 06:23:24;;;;;;;;;;;;;;;1.25;100.00;100605.47;5050695;28;20019;-59
2023/01/27 06:25:49;;;;;;;;;;;;;;;1.24;100.00;100609.72;5052645;28;20428;-61
2023/01/27 06:28:14;;;;;;;;;;;;;;;1.33;100.00;100616.41;5052117;28;19920;-59
2023/01/27 06:30:40;;;;;;;;;;;;;;;1.23;100.00;100617.34;5042364;28;19937;-59
2023/01/27 06:33:05;;;;;;;;;;;;;;;1.21;100.00;100611.44;5034195;28;20474;-61
2023/01/27 06:35:31;;;;;;;;;;;;;;;1.13;100.00;100614.88;5034759;28;19917;-58
2023/01/27 06:37:57;;;;;;;;;;;;;;;1.13;100.00;100616.56;5051448;28;20368;-59
2023/01/27 06:40:22;;;;;;;;;;;;;;;1.23;100.00;100627.47;5024031;28;20312;-59
2023/01/27 06:42:48;;;;;;;;;;;;;;;1.25;100.00;100626.63;5050760;28;20000;-59
2023/01/27 06:45:13;;;;;;;;;;;;;;;1.33;100.00;100628.22;5052095;28;19970;-58
2023/01/27 06:47:39;;;;;;;;;;;;;;;1.32;100.00;100626.56;5034063;28;19940;-58
2023/01/27 06:50:05;;;;;;;;;;;;;;;1.33;100.00;100633.28;5023655;28;20335;-59
2023/01/27 06:52:30;;;;;;;;;;;;;;;1.33;100.00;100629.09;5050401;28;20015;-60
2023/01/27 06:54:55;;;;;;;;;;;;;;;1.41;100.00;100632.38;5052488;28;19960;-59
2023/01/27 06:57:20;;;;;;;;;;;;;;;1.37;100.00;100627.38;5051290;28;20406;-59
2023/01/27 06:59:46;;;;;;;;;;;;;;;1.45;100.00;100635.72;5039356;28;19920;-59
2023/01/27 07:02:11;;;;;;;;;;;;;;;1.40;100.00;100630.72;5039687;28;19931;-60
2023/01/27 07:04:37;;;;;;;;;;;;;;;1.23;100.00;100635.09;5052120;28;20368;-59
2023/01/27 07:07:02;;;;;;;;;;;;;;;1.19;100.00;100631.72;5051205;28;19952;-60
2023/01/27 07:09:27;;;;;;;;;;;;;;;1.21;100.00;100637.63;5052147;28;20367;-60
2023/01/27 07:11:52;;;;;;;;;;;;;;;1.25;100.00;100634.22;5039868;28;20323;-60
2023/01/27 07:14:18;;;;;;;;;;;;;;;1.31;100.00;100646.00;5052088;28;19923;-60
2023/01/27 07:16:43;;;;;;;;;;;;;;;1.32;100.00;100644.31;5033156;28;19933;-60
2023/01/27 07:19:08;;;;;;;;;;;;;;;1.33;100.00;100640.91;5039023;28;19937;-60
2023/01/27 07:21:33;;;;;;;;;;;;;;;1.34;100.00;100645.97;5039592;28;19921;-59
2023/01/27 07:23:58;;;;;;;;;;;;;;;1.28;100.00;100641.78;5038744;28;19974;-60
2023/01/27 07:26:23;;;;;;;;;;;;;;;1.31;100.00;100645.16;5048470;28;19924;-59
2023/01/27 07:28:49;;;;;;;;;;;;;;;1.39;100.00;100643.38;5041023;28;19917;-60
2023/01/27 07:31:14;;;;;;;;;;;;;;;1.43;100.00;100655.22;5040511;28;19929;-60
2023/01/27 07:33:39;;;;;;;;;;;;;;;1.47;100.00;100656.03;5051429;28;20379;-59
2023/01/27 07:36:04;;;;;;;;;;;;;;;1.50;100.00;100656.84;5050840;28;19928;-60
2023/01/27 07:38:29;;;;;;;;;;;;;;;1.44;100.00;100656.91;5051599;28;19921;-59
2023/01/27 07:40:55;;;;;;;;;;;;;;;1.40;100.00;100661.16;5040533;28;20132;-60
2023/01/27 07:43:20;;;;;;;;;;;;;;;1.47;100.00;100664.47;5030707;28;19921;-62
2023/01/27 07:45:47;;;;;;;;;;;;;;;1.53;100.00;100661.06;5046926;28;20025;-60
2023/01/27 07:48:13;;;;;;;;;;;;;;;1.46;100.00;100665.31;5029901;28;19917;-60
2023/01/27 07:50:38;;;;;;;;;;;;;;;1.53;100.00;100664.41;5036510;28;19928;-60
2023/01/27 07:53:04;;;;;;;;;;;;;;;1.51;100.00;100665.28;5038426;28;19925;-60
2023/01/27 07:55:29;;;;;;;;;;;;;;;1.48;100.00;100666.16;5034757;28;19924;-60
2023/01/27 07:57:55;;;;;;;;;;;;;;;1.44;100.00;100669.56;5035105;28;20011;-59
2023/01/27 08:00:21;;;;;;;;;;;;;;;1.31;100.00;100676.41;5015240;28;19928;-60
2023/01/27 08:02:50;;;;;;;;;;;;;;;1.32;100.00;100672.19;5018363;28;19943;-60
2023/01/27 08:05:15;;;;;;;;;;;;;;;1.35;100.00;100677.22;5029183;28;19925;-60
2023/01/27 08:07:40;;;;;;;;;;;;;;;1.39;100.00;100673.81;5041660;28;19920;-60
2023/01/27 08:10:06;;;;;;;;;;;;;;;1.45;100.00;100673.75;5040899;28;19959;-60
2023/01/27 08:12:31;;;;;;;;;;;;;;;1.52;100.00;100682.19;5034791;28;20007;-59
2023/01/27 08:14:56;;;;;;;;;;;;;;;1.56;100.00;100687.22;5044566;28;19917;-60
2023/01/27 08:17:22;;;;;;;;;;;;;;;1.60;100.00;100688.00;5023182;28;19960;-59
2023/01/27 08:19:49;;;;;;;;;;;;;;;1.52;100.00;100683.00;5042340;28;19925;-61
2023/01/27 08:22:18;;;;;;;;;;;;;;;1.59;100.00;100692.25;5018356;28;19928;-60
2023/01/27 08:24:43;;;;;;;;;;;;;;;1.61;100.00;100688.03;5030388;28;20398;-60
2023/01/27 08:27:08;;;;;;;;;;;;;;;1.69;100.00;100687.97;5032452;28;20051;-61
2023/01/27 08:29:34;;;;;;;;;;;;;;;1.78;100.00;100687.84;5051947;28;19955;-60
2023/01/27 08:31:59;;;;;;;;;;;;;;;1.78;100.00;100684.50;5019572;28;19921;-60
2023/01/27 08:34:24;;;;;;;;;;;;;;;1.81;100.00;100691.22;5036687;28;20651;-60
2023/01/27 08:36:49;;;;;;;;;;;;;;;1.70;100.00;100694.72;5054193;28;20399;-60
2023/01/27 08:39:15;;;;;;;;;;;;;;;1.69;100.00;100698.09;5054552;28;19920;-58
2023/01/27 08:41:40;;;;;;;;;;;;;;;1.78;100.00;100698.00;5038850;28;20023;-59
2023/01/27 08:44:05;;;;;;;;;;;;;;;1.94;100.00;100692.81;5054038;28;19970;-62
2023/01/27 08:46:31;;;;;;;;;;;;;;;1.93;100.00;100706.34;5036037;28;19924;-59
2023/01/27 08:48:56;;;;;;;;;;;;;;;1.91;100.00;100700.44;5048857;28;19927;-63
2023/01/27 08:51:21;;;;;;;;;;;;;;;2.10;100.00;100701.94;5037063;28;20453;-61
2023/01/27 08:53:46;;;;;;;;;;;;;;;2.20;100.00;100701.88;5049888;28;19917;-60
2023/01/27 08:56:12;;;;;;;;;;;;;;;2.18;100.00;100714.56;5050852;28;20292;-61
2023/01/27 08:58:38;;;;;;;;;;;;;;;2.15;100.00;100713.78;5032395;28;20317;-60
2023/01/27 09:01:04;;;;;;;;;;;;;;;2.16;100.00;100715.44;5039448;28;19921;-60
2023/01/27 09:03:29;;;;;;;;;;;;;;;2.19;100.00;100716.25;5042304;28;19925;-60
2023/01/27 09:05:55;;;;;;;;;;;;;;;2.30;100.00;100717.84;5050961;28;19928;-60
2023/01/27 09:08:20;;;;;;;;;;;;;;;2.25;100.00;100717.91;5041749;28;20057;-60
2023/01/27 09:10:45;;;;;;;;;;;;;;;2.22;100.00;100723.84;5037018;28;20364;-62
2023/01/27 09:13:11;;;;;;;;;;;;;;;2.20;100.00;100728.09;5036876;28;20000;-61
2023/01/27 09:15:36;;;;;;;;;;;;;;;2.13;100.00;100733.25;5053979;28;19920;-61
2023/01/27 09:18:02;;;;;;;;;;;;;;;2.19;100.00;100741.63;5053339;28;19923;-61
2023/01/27 09:20:27;;;;;;;;;;;;;;;1.94;100.00;100739.31;5043652;28;19920;-61
2023/01/27 09:22:56;;;;;;;;;;;;;;;1.97;100.00;100743.53;5050470;28;19917;-61
2023/01/27 09:25:21;;;;;;;;;;;;;;;2.00;100.00;100750.25;5051534;28;19988;-61
2023/01/27 09:27:46;;;;;;;;;;;;;;;1.99;100.00;100748.59;5043550;28;20384;-61
2023/01/27 09:30:13;;;;;;;;;;;;;;;1.92;100.00;100743.59;5037862;28;19921;-61
2023/01/27 09:32:38;;;;;;;;;;;;;;;1.98;100.00;100749.44;5032025;28;20004;-60
2023/01/27 09:35:04;;;;;;;;;;;;;;;1.92;100.00;100743.59;5037530;28;20008;-63
2023/01/27 09:37:32;;;;;;;;;;;;;;;1.93;100.00;100742.72;5038362;28;20261;-60
2023/01/27 09:40:01;;;;;;;;;;;;;;;1.99;100.00;100749.44;5037522;28;19917;-60
2023/01/27 09:42:35;;;;;;;;;;;;;;;1.92;100.00;100750.34;5022059;28;19940;-61
2023/01/27 09:45:18;;;;;;;;;;;;;;;2.00;100.00;100747.72;5039120;28;19921;-60
2023/01/27 09:47:55;;;;;;;;;;;;;;;1.95;100.00;100747.78;5037507;28;20295;-60
2023/01/27 09:50:34;;;;;;;;;;;;;;;1.89;100.00;100751.19;5023494;28;19975;-60
2023/01/27 09:53:25;;;;;;;;;;;;;;;2.00;100.00;100750.25;5038387;28;20288;-61
2023/01/27 09:56:04;;;;;;;;;;;;;;;1.98;100.00;100752.00;5027408;28;19921;-68
2023/01/27 09:58:44;;;;;;;;;;;;;;;2.05;100.00;100746.00;5016873;28;19917;-60
2023/01/27 10:01:27;;;;;;;;;;;;;;;1.96;100.00;100752.00;5010440;28;20000;-60
2023/01/27 10:03:56;;;;;;;;;;;;;;;1.87;100.00;100750.41;5024636;28;20034;-61
2023/01/27 10:06:30;;;;;;;;;;;;;;;1.93;100.00;100744.41;5026550;28;19988;-61
2023/01/27 10:08:58;;;;;;;;;;;;;;;1.84;100.00;100749.56;5027859;28;20091;-61
2023/01/27 10:11:27;;;;;;;;;;;;;;;1.97;100.00;100753.66;5009481;28;20385;-60
2023/01/27 10:14:24;;;;;;;;;;;;;;;1.94;100.00;100746.09;5022077;28;19924;-61
2023/01/27 10:16:51;;;;;;;;;;;;;;;1.99;100.00;100741.81;4935822;29;19922;-61
2023/01/27 10:19:26;;;;;;;;;;;;;;;2.04;100.00;100752.75;4952220;29;19922;-61
2023/01/27 10:22:04;;;;;;;;;;;;;;;2.13;100.00;100746.75;4940556;28;20299;-61
2023/01/27 10:24:38;;;;;;;;;;;;;;;2.25;100.00;100743.28;4951531;29;19926;-61
2023/01/27 10:27:20;;;;;;;;;;;;;;;2.29;100.00;100744.09;4951839;28;19922;-61
2023/01/27 10:29:50;;;;;;;;;;;;;;;2.32;100.00;100741.50;4951829;29;19918;-61
2023/01/27 10:32:36;;;;;;;;;;;;;;;2.36;100.00;100736.41;4932203;28;19975;-63
2023/01/27 10:35:01;;;;;;;;;;;;;;;2.42;100.00;100738.03;4926977;29;19933;-61
2023/01/27 10:37:47;;;;;;;;;;;;;;;2.24;100.00;100739.06;4950848;29;19930;-61
2023/01/27 10:40:23;;;;;;;;;;;;;;;2.22;100.00;100734.00;4934796;28;20017;-60
2023/01/27 10:42:54;;;;;;;;;;;;;;;2.37;100.00;100735.53;4952305;29;19919;-60
2023/01/27 10:45:36;;;;;;;;;;;;;;;2.33;100.00;100728.81;4951054;28;19919;-59
2023/01/27 10:48:04;;;;;;;;;;;;;;;2.37;100.00;100735.53;4951184;29;20013;-59
2023/01/27 10:50:34;;;;;;;;;;;;;;;2.35;100.00;100727.09;4942217;28;19929;-58
2023/01/27 10:53:09;;;;;;;;;;;;;;;2.49;100.00;100737.09;5018752;28;19917;-60
2023/01/27 10:55:37;;;;;;;;;;;;;;;2.43;100.00;100729.53;5034004;28;20325;-60
2023/01/27 10:58:06;;;;;;;;;;;;;;;2.44;100.00;100735.47;5029442;28;20323;-61
2023/01/27 11:00:39;;;;;;;;;;;;;;;2.39;100.00;100741.47;5020343;28;19929;-66
2023/01/27 11:03:20;;;;;;;;;;;;;;;2.42;100.00;100740.59;5039663;28;19952;-62
2023/01/27 11:05:49;;;;;;;;;;;;;;;2.44;100.00;100738.84;5033795;28;20368;-62
2023/01/27 11:08:17;;;;;;;;;;;;;;;2.52;100.00;100736.25;5049947;28;20011;-62
2023/01/27 11:11:43;;;;;;;;;;;;;;;2.38;100.00;100732.16;5023331;28;19933;-62
2023/01/27 11:13:31;;;;;;;;;;;;;;;2.42;100.00;100727.88;5032145;28;19928;-62
2023/01/27 11:15:56;;;;;;;;;;;;;;;2.39;100.00;100727.91;5034076;28;19925;-62
2023/01/27 11:18:25;;;;;;;;;;;;;;;2.50;100.00;100730.34;5032480;28;19968;-62
2023/01/27 11:20:52;;;;;;;;;;;;;;;2.54;100.00;100729.44;5022416;28;19928;-61
2023/01/27 11:23:22;;;;;;;;;;;;;;;2.35;100.00;100734.72;5049657;28;19920;-61
2023/01/27 11:26:01;;;;;;;;;;;;;;;2.44;100.00;100740.56;5040524;28;19967;-67
2023/01/27 11:28:45;;;;;;;;;;;;;;;2.51;100.00;100735.38;5039020;28;19936;-61
2023/01/27 11:31:15;;;;;;;;;;;;;;;2.69;100.00;100730.94;5037162;28;19925;-63
2023/01/27 11:34:03;;;;;;;;;;;;;;;2.74;100.00;100732.59;5049956;28;19948;-62
2023/01/27 11:36:29;;;;;;;;;;;;;;;2.70;100.00;100723.31;5043936;28;19917;-62
2023/01/27 11:38:55;;;;;;;;;;;;;;;2.77;100.00;100726.63;5031334;28;20008;-61
2023/01/27 11:41:21;;;;;;;;;;;;;;;2.82;100.00;100729.13;5030217;28;19922;-61
2023/01/27 11:43:46;;;;;;;;;;;;;;;2.66;100.00;100718.31;5032359;28;20429;-61
2023/01/27 11:46:15;;;;;;;;;;;;;;;2.63;100.00;100720.88;5025038;28;19916;-63
2023/01/27 11:48:49;;;;;;;;;;;;;;;2.74;100.00;100719.03;5032821;28;19928;-60
2023/01/27 11:51:17;;;;;;;;;;;;;;;2.93;100.00;100717.13;5027021;28;19921;-61
2023/01/27 11:53:43;;;;;;;;;;;;;;;3.01;100.00;100712.75;5037771;28;19928;-61
2023/01/27 11:56:14;;;;;;;;;;;;;;;3.02;100.00;100716.16;5045536;28;20012;-61
2023/01/27 11:58:44;;;;;;;;;;;;;;;3.02;100.00;100708.53;5047319;28;19917;-61
2023/01/27 12:01:12;;;;;;;;;;;;;;;2.98;100.00;100704.34;5023601;28;19920;-63
2023/01/27 12:03:45;;;;;;;;;;;;;;;3.09;100.00;100696.56;5029985;28;20372;-61
2023/01/27 12:06:13;;;;;;;;;;;;;;;3.03;100.00;100703.41;5054449;28;19974;-61
2023/01/27 12:08:48;;;;;;;;;;;;;;;3.06;100.00;100702.53;5054791;28;19923;-61
2023/01/27 12:11:42;;;;;;;;;;;;;;;3.02;100.00;100706.00;5023282;28;19925;-61
2023/01/27 12:14:12;;;;;;;;;;;;;;;2.99;100.00;100706.00;4988719;28;20401;-61
2023/01/27 12:16:43;;;;;;;;;;;;;;;2.93;100.00;100704.41;4983021;28;19926;-62
2023/01/27 12:19:34;;;;;;;;;;;;;;;2.84;100.00;100701.97;4976878;28;20479;-62
2023/01/27 12:22:07;;;;;;;;;;;;;;;2.82;100.00;100704.53;4981386;28;19953;-61
2023/01/27 12:24:34;;;;;;;;;;;;;;;2.78;100.00;100699.50;4992991;28;19926;-61
2023/01/27 12:27:00;;;;;;;;;;;;;;;2.85;100.00;100701.13;4992967;28;19917;-60
2023/01/27 12:29:47;;;;;;;;;;;;;;;2.93;100.00;100698.47;4993199;28;19918;-61
2023/01/27 12:32:17;;;;;;;;;;;;;;;2.96;100.00;100690.81;4982950;28;19921;-62
2023/01/27 12:34:44;;;;;;;;;;;;;;;3.00;100.00;100682.28;4993268;28;20365;-61
2023/01/27 12:37:18;;;;;;;;;;;;;;;3.15;100.00;100678.69;4992579;28;19918;-61
2023/01/27 12:39:47;;;;;;;;;;;;;;;3.06;100.00;100677.97;4993312;28;19946;-61
2023/01/27 12:42:31;;;;;;;;;;;;;;;3.14;100.00;100675.31;4967011;28;19945;-62
2023/01/27 12:44:56;;;;;;;;;;;;;;;3.19;100.00;100671.00;4992862;28;19922;-62
2023/01/27 12:47:25;;;;;;;;;;;;;;;3.00;100.00;100670.44;4992726;28;19918;-61
2023/01/27 12:49:51;;;;;;;;;;;;;;;3.05;100.00;100668.66;5006307;28;19994;-62
2023/01/27 12:52:19;;;;;;;;;;;;;;;3.19;100.00;100670.16;5036060;28;19928;-61
2023/01/27 12:54:44;;;;;;;;;;;;;;;3.30;100.00;100660.66;5048474;28;20023;-61
2023/01/27 12:57:14;;;;;;;;;;;;;;;3.24;100.00;100665.84;5049511;28;19963;-62
2023/01/27 12:59:46;;;;;;;;;;;;;;;3.14;100.00;100666.81;5033183;28;20024;-60
2023/01/27 13:02:22;;;;;;;;;;;;;;;3.17;100.00;100664.25;5023381;28;19925;-61
2023/01/27 13:04:56;;;;;;;;;;;;;;;3.21;100.00;100668.44;5048487;28;19988;-61
2023/01/27 13:07:29;;;;;;;;;;;;;;;3.20;100.00;100670.13;5035509;28;19921;-62
2023/01/27 13:09:59;;;;;;;;;;;;;;;3.19;100.00;100670.16;5051445;28;19917;-61
2023/01/27 13:12:29;;;;;;;;;;;;;;;3.16;100.00;100671.06;5025706;28;19928;-60
2023/01/27 13:14:56;;;;;;;;;;;;;;;3.20;100.00;100675.22;5054060;28;19917;-61
2023/01/27 13:17:35;;;;;;;;;;;;;;;3.19;100.00;100673.53;5035468;28;20375;-62